Time;durP1;ratioP1;P1;durP2;ratioP2;P2;SDS_P1;SDS_P2;PMS_P1;PMS_P2;Temp;Humidity;BMP_temperature;BMP_pressure;BME280_temperature;BME280_humidity;BME280_pressure;Samples;Min_cycle;Max_cycle;Signal;HPM_P1;HPM_P2
2024/03/31 00:01:54;;;;;;;4.57;2.80;;;9.10;99.90;;;;;;5037793;28;20212;-77
2024/03/31 00:04:20;;;;;;;5.75;2.97;;;9.10;99.90;;;;;;5038939;28;20227;-77
2024/03/31 00:06:46;;;;;;;4.85;2.05;;;9.20;99.90;;;;;;5038833;28;20430;-77
2024/03/31 00:09:13;;;;;;;7.80;2.23;;;9.30;99.90;;;;;;5039518;28;20210;-77
2024/03/31 00:11:38;;;;;;;8.88;2.55;;;9.30;99.90;;;;;;5038298;28;20220;-77
2024/03/31 00:14:05;;;;;;;7.90;2.40;;;9.40;99.90;;;;;;5038529;28;20221;-77
2024/03/31 00:16:32;;;;;;;4.97;2.17;;;9.40;99.90;;;;;;5038515;28;20277;-77
2024/03/31 00:18:59;;;;;;;10.38;2.97;;;9.40;99.90;;;;;;5039239;28;20232;-77
2024/03/31 00:21:25;;;;;;;7.05;3.05;;;9.50;99.90;;;;;;5037640;28;20209;-77
2024/03/31 00:23:52;;;;;;;9.02;2.55;;;9.50;99.90;;;;;;5037895;28;20226;-77
2024/03/31 00:26:19;;;;;;;4.57;2.70;;;9.50;99.90;;;;;;5037670;28;20224;-77
2024/03/31 00:28:46;;;;;;;6.18;2.88;;;9.50;99.90;;;;;;5036254;28;20217;-77
2024/03/31 00:31:13;;;;;;;6.40;2.70;;;9.60;99.90;;;;;;5037463;28;20214;-77
2024/03/31 00:33:41;;;;;;;3.80;1.85;;;9.60;99.90;;;;;;5037164;28;20237;-77
2024/03/31 00:36:09;;;;;;;4.93;2.70;;;9.60;99.90;;;;;;5036849;28;20266;-77
2024/03/31 00:38:35;;;;;;;4.38;2.72;;;9.70;99.90;;;;;;5036848;28;20208;-77
2024/03/31 00:41:02;;;;;;;4.63;2.67;;;9.70;99.90;;;;;;5034765;28;20648;-76
2024/03/31 00:43:27;;;;;;;5.75;2.40;;;9.70;99.90;;;;;;5033658;28;20229;-77
2024/03/31 00:45:54;;;;;;;7.30;2.07;;;9.70;99.90;;;;;;5034524;28;20198;-77
2024/03/31 00:48:20;;;;;;;7.45;3.22;;;9.70;99.90;;;;;;5034709;28;20213;-77
2024/03/31 00:50:48;;;;;;;10.80;2.70;;;9.70;99.90;;;;;;5034514;28;20206;-77
2024/03/31 00:53:14;;;;;;;6.93;2.47;;;9.70;99.90;;;;;;5037439;28;20221;-77
2024/03/31 00:55:40;;;;;;;8.57;3.20;;;9.70;99.90;;;;;;5054593;28;20225;-76
2024/03/31 00:58:06;;;;;;;8.15;2.20;;;9.70;99.90;;;;;;5054702;28;20228;-77
2024/03/31 01:00:33;;;;;;;11.13;2.17;;;9.70;99.90;;;;;;5053693;28;20198;-77
2024/03/31 01:02:59;;;;;;;9.50;2.67;;;9.70;99.90;;;;;;5053794;28;20710;-77
2024/03/31 01:05:26;;;;;;;6.87;2.50;;;9.70;99.90;;;;;;5054235;28;20216;-77
2024/03/31 01:07:53;;;;;;;10.48;1.90;;;9.70;99.90;;;;;;5055415;28;20456;-76
2024/03/31 01:10:20;;;;;;;3.92;2.38;;;9.70;99.90;;;;;;5056341;28;20227;-77
2024/03/31 01:12:46;;;;;;;3.47;2.42;;;9.70;99.90;;;;;;5053968;28;20759;-77
2024/03/31 01:15:13;;;;;;;8.03;2.17;;;9.70;99.90;;;;;;5054357;28;20217;-77
2024/03/31 01:17:39;;;;;;;4.70;2.42;;;9.70;99.90;;;;;;5054149;28;20534;-77
2024/03/31 01:20:06;;;;;;;3.53;2.27;;;9.60;99.90;;;;;;5054144;28;20217;-77
2024/03/31 01:22:34;;;;;;;5.82;2.40;;;9.70;99.90;;;;;;5053510;28;20232;-77
2024/03/31 01:25:02;;;;;;;6.38;2.13;;;9.60;99.90;;;;;;5053261;28;20275;-77
2024/03/31 01:27:28;;;;;;;6.82;1.83;;;9.60;99.90;;;;;;5053339;28;20212;-77
2024/03/31 01:29:55;;;;;;;8.47;2.53;;;9.70;99.90;;;;;;5053725;28;20693;-77
2024/03/31 01:32:20;;;;;;;10.98;2.47;;;9.70;99.90;;;;;;5054081;28;20232;-77
2024/03/31 01:34:48;;;;;;;4.60;2.20;;;9.70;99.90;;;;;;5058067;28;20202;-77
2024/03/31 01:37:13;;;;;;;6.90;2.55;;;9.70;99.90;;;;;;5058082;28;20221;-77
2024/03/31 01:39:41;;;;;;;8.37;2.50;;;9.70;99.90;;;;;;5056915;28;20215;-78
2024/03/31 01:42:08;;;;;;;6.95;2.30;;;9.70;99.90;;;;;;5055148;28;20231;-77
2024/03/31 01:44:35;;;;;;;6.22;2.22;;;9.80;99.90;;;;;;5053543;28;20244;-77
2024/03/31 01:47:01;;;;;;;4.25;2.03;;;9.80;99.90;;;;;;5053480;28;20648;-77
2024/03/31 01:49:27;;;;;;;4.40;1.73;;;9.80;99.90;;;;;;5055031;28;20208;-77
2024/03/31 01:51:53;;;;;;;4.68;2.10;;;9.80;99.90;;;;;;5055360;28;20220;-77
2024/03/31 01:54:20;;;;;;;10.40;2.17;;;9.70;99.90;;;;;;5056222;28;20558;-77
2024/03/31 01:56:46;;;;;;;7.50;1.80;;;9.70;99.90;;;;;;5056511;28;20212;-77
2024/03/31 01:59:14;;;;;;;4.83;2.57;;;9.70;99.90;;;;;;5056138;28;20600;-77
2024/03/31 02:01:39;;;;;;;9.45;2.28;;;9.70;99.90;;;;;;5056462;28;20576;-77
2024/03/31 02:04:06;;;;;;;8.63;2.80;;;9.70;99.90;;;;;;5056182;28;20240;-77
2024/03/31 02:06:32;;;;;;;3.55;2.00;;;9.70;99.90;;;;;;5056060;28;20209;-77
2024/03/31 02:08:58;;;;;;;2.97;1.87;;;9.70;99.90;;;;;;5056578;28;20658;-77
2024/03/31 02:11:24;;;;;;;10.02;2.30;;;9.70;99.90;;;;;;5056560;28;20209;-77
2024/03/31 02:13:51;;;;;;;7.03;2.47;;;9.70;99.90;;;;;;5056809;28;20239;-77
2024/03/31 02:16:20;;;;;;;5.63;1.92;;;9.70;99.90;;;;;;5056225;28;20209;-77
2024/03/31 02:18:47;;;;;;;6.35;2.40;;;9.80;99.90;;;;;;5056169;28;20219;-77
2024/03/31 02:21:13;;;;;;;9.63;2.20;;;9.80;99.90;;;;;;5056087;28;20270;-77
2024/03/31 02:23:40;;;;;;;8.60;2.40;;;9.80;99.90;;;;;;5055613;28;20225;-77
2024/03/31 02:26:06;;;;;;;8.73;2.85;;;9.70;99.90;;;;;;5055579;28;20213;-77
2024/03/31 02:28:34;;;;;;;6.97;2.50;;;9.70;99.90;;;;;;5055512;28;20202;-77
2024/03/31 02:31:00;;;;;;;7.82;2.30;;;9.60;99.90;;;;;;5055306;28;20229;-77
2024/03/31 02:33:28;;;;;;;7.50;2.60;;;9.60;99.90;;;;;;5056858;28;20275;-77
2024/03/31 02:35:54;;;;;;;8.30;2.10;;;9.50;99.90;;;;;;5056464;28;20464;-77
2024/03/31 02:38:21;;;;;;;4.27;2.30;;;9.40;99.90;;;;;;5055894;28;20212;-77
2024/03/31 02:40:47;;;;;;;11.52;3.20;;;9.30;99.90;;;;;;5055604;28;20641;-77
2024/03/31 02:43:13;;;;;;;7.10;2.40;;;9.30;99.90;;;;;;5055274;28;20257;-77
2024/03/31 02:45:39;;;;;;;3.65;2.38;;;9.40;99.90;;;;;;5054181;28;20213;-77
2024/03/31 02:48:07;;;;;;;4.60;2.50;;;9.40;99.90;;;;;;5054758;28;20258;-77
2024/03/31 02:50:34;;;;;;;6.20;2.75;;;9.30;99.90;;;;;;5054946;28;20636;-77
2024/03/31 02:53:01;;;;;;;6.32;2.42;;;9.20;99.90;;;;;;5054343;28;20647;-77
2024/03/31 02:55:26;;;;;;;6.90;2.70;;;9.20;99.90;;;;;;5055153;28;20213;-77
2024/03/31 02:57:53;;;;;;;6.83;2.23;;;9.20;99.90;;;;;;5053640;28;20208;-77
2024/03/31 03:00:19;;;;;;;3.85;2.63;;;9.10;99.90;;;;;;5054604;28;20219;-77
2024/03/31 03:02:47;;;;;;;5.43;2.03;;;9.00;99.90;;;;;;5054219;28;20221;-77
2024/03/31 03:05:13;;;;;;;6.70;3.25;;;9.00;99.90;;;;;;5054436;28;20501;-77
2024/03/31 03:07:41;;;;;;;8.07;2.53;;;8.90;99.90;;;;;;5056906;28;20209;-77
2024/03/31 03:10:08;;;;;;;9.05;2.60;;;8.80;99.90;;;;;;5056675;28;20220;-77
2024/03/31 03:12:34;;;;;;;4.10;1.85;;;8.80;99.90;;;;;;5043264;28;20357;-77
2024/03/31 03:15:00;;;;;;;6.15;2.35;;;8.70;99.90;;;;;;5035653;28;20205;-77
2024/03/31 03:17:27;;;;;;;4.07;2.30;;;8.70;99.90;;;;;;5035004;28;20212;-77
2024/03/31 03:19:52;;;;;;;6.38;2.35;;;8.60;99.90;;;;;;5034977;28;20217;-77
2024/03/31 03:22:19;;;;;;;3.77;2.00;;;8.50;99.90;;;;;;5034551;28;20232;-77
2024/03/31 03:24:46;;;;;;;5.82;2.03;;;8.40;99.90;;;;;;5034910;28;20764;-78
2024/03/31 03:27:13;;;;;;;4.90;2.63;;;8.40;99.90;;;;;;5033871;28;20219;-77
2024/03/31 03:29:39;;;;;;;2.95;2.00;;;8.30;99.90;;;;;;5034382;28;20216;-77
2024/03/31 03:32:05;;;;;;;6.30;2.80;;;8.20;99.90;;;;;;5034883;28;20205;-77
2024/03/31 03:34:32;;;;;;;4.25;2.05;;;8.20;99.90;;;;;;5034284;28;20206;-77
2024/03/31 03:36:58;;;;;;;2.85;2.03;;;8.10;99.90;;;;;;5034648;28;20249;-77
2024/03/31 03:39:25;;;;;;;8.27;2.20;;;8.10;99.90;;;;;;5034219;28;20677;-77
2024/03/31 03:41:52;;;;;;;8.85;2.05;;;8.10;99.90;;;;;;5033765;28;20212;-77
2024/03/31 03:44:19;;;;;;;6.60;1.83;;;8.00;99.90;;;;;;5033656;28;20260;-77
2024/03/31 03:46:44;;;;;;;8.45;2.33;;;8.00;99.90;;;;;;5033884;28;20216;-77
2024/03/31 03:49:11;;;;;;;3.67;1.90;;;7.90;99.90;;;;;;5034227;28;20205;-77
2024/03/31 03:51:38;;;;;;;10.10;2.65;;;7.80;99.90;;;;;;5033254;28;20217;-77
2024/03/31 03:54:05;;;;;;;8.80;2.83;;;7.70;99.90;;;;;;5033552;28;20232;-77
2024/03/31 03:56:31;;;;;;;9.68;2.47;;;7.70;99.90;;;;;;5033465;28;20213;-77
2024/03/31 03:58:59;;;;;;;4.20;2.20;;;7.60;99.90;;;;;;5033789;28;20209;-77
2024/03/31 04:01:24;;;;;;;3.92;2.45;;;7.60;99.90;;;;;;5033626;28;20581;-77
2024/03/31 04:03:51;;;;;;;3.80;2.00;;;7.50;99.90;;;;;;5034746;28;20228;-77
2024/03/31 04:06:17;;;;;;;4.28;2.00;;;7.50;99.90;;;;;;5036895;28;20671;-77
2024/03/31 04:08:44;;;;;;;7.40;2.90;;;7.40;99.90;;;;;;5036690;28;20211;-77
2024/03/31 04:11:10;;;;;;;4.47;2.20;;;7.30;99.90;;;;;;5036613;28;20252;-77
2024/03/31 04:13:37;;;;;;;4.67;2.30;;;7.20;99.90;;;;;;5036546;28;20232;-77
2024/03/31 04:16:04;;;;;;;6.13;2.10;;;7.20;99.90;;;;;;5035761;28;20214;-76
2024/03/31 04:18:31;;;;;;;6.05;2.35;;;7.10;99.90;;;;;;5036184;28;20207;-77
2024/03/31 04:20:58;;;;;;;11.43;2.60;;;7.00;99.90;;;;;;5035238;28;20211;-77
2024/03/31 04:23:23;;;;;;;6.85;2.10;;;7.00;99.90;;;;;;5035250;28;20230;-77
2024/03/31 04:25:51;;;;;;;8.37;3.73;;;6.90;99.90;;;;;;5035648;28;20226;-77
2024/03/31 04:28:17;;;;;;;6.43;2.60;;;6.90;99.90;;;;;;5034923;28;20972;-77
2024/03/31 04:30:44;;;;;;;5.03;2.70;;;6.90;99.90;;;;;;5034707;28;20242;-76
2024/03/31 04:33:11;;;;;;;4.85;2.17;;;6.80;99.90;;;;;;5035030;28;20885;-77
2024/03/31 04:35:39;;;;;;;4.28;1.70;;;6.90;99.90;;;;;;5035127;28;20373;-77
2024/03/31 04:38:04;;;;;;;1.92;1.75;;;6.80;99.90;;;;;;5034896;28;20211;-77
2024/03/31 04:40:31;;;;;;;7.23;2.43;;;6.70;99.90;;;;;;5036230;28;20545;-77
2024/03/31 04:42:57;;;;;;;3.63;2.15;;;6.70;99.90;;;;;;5037404;28;20282;-77
2024/03/31 04:45:24;;;;;;;7.20;2.80;;;6.70;99.90;;;;;;5038840;28;20226;-77
2024/03/31 04:47:50;;;;;;;5.80;2.05;;;6.60;99.90;;;;;;5038899;28;20226;-77
2024/03/31 04:50:19;;;;;;;3.67;1.93;;;6.60;99.90;;;;;;5038370;28;20207;-77
2024/03/31 04:52:45;;;;;;;5.88;2.10;;;6.70;99.90;;;;;;5038383;28;20498;-77
2024/03/31 04:55:12;;;;;;;3.83;2.15;;;6.60;99.90;;;;;;5038097;28;20208;-77
2024/03/31 04:57:40;;;;;;;4.05;1.90;;;6.50;99.90;;;;;;5037935;28;20210;-77
2024/03/31 05:00:07;;;;;;;2.80;2.60;;;6.50;99.90;;;;;;5037846;28;20230;-77
2024/03/31 05:02:33;;;;;;;15.77;2.47;;;6.50;99.90;;;;;;5037196;28;20271;-77
2024/03/31 05:05:01;;;;;;;4.73;2.40;;;6.50;99.90;;;;;;5037319;28;20229;-76
2024/03/31 05:07:28;;;;;;;3.75;1.52;;;6.50;99.90;;;;;;5037395;28;20469;-77
2024/03/31 05:09:54;;;;;;;2.60;2.13;;;6.60;99.90;;;;;;5035830;28;20202;-77
2024/03/31 05:12:20;;;;;;;12.73;3.22;;;6.60;99.90;;;;;;5036239;28;20722;-77
2024/03/31 05:14:47;;;;;;;2.40;1.53;;;6.70;99.90;;;;;;5035258;28;20206;-77
2024/03/31 05:17:13;;;;;;;4.40;2.25;;;6.80;99.90;;;;;;5035999;28;20228;-77
2024/03/31 05:19:39;;;;;;;2.97;1.80;;;6.80;99.90;;;;;;5035760;28;20291;-77
2024/03/31 05:22:05;;;;;;;6.38;2.50;;;6.90;99.90;;;;;;5034790;28;20210;-77
2024/03/31 05:24:33;;;;;;;2.60;1.97;;;7.00;99.90;;;;;;5035421;28;20229;-77
2024/03/31 05:26:59;;;;;;;2.42;1.73;;;7.00;99.90;;;;;;5035177;28;20258;-77
2024/03/31 05:29:25;;;;;;;8.87;2.07;;;7.10;99.90;;;;;;5035322;28;20202;-77
2024/03/31 05:31:51;;;;;;;7.13;4.18;;;7.10;99.90;;;;;;5034321;28;20203;-77
2024/03/31 05:34:18;;;;;;;2.80;2.10;;;7.20;99.90;;;;;;5035191;28;20547;-77
2024/03/31 05:36:44;;;;;;;8.70;2.25;;;7.30;99.90;;;;;;5035253;28;20202;-77
2024/03/31 05:39:10;;;;;;;6.63;2.33;;;7.30;99.90;;;;;;5035002;28;20216;-77
2024/03/31 05:41:37;;;;;;;3.15;1.98;;;7.40;99.90;;;;;;5034878;28;20211;-77
2024/03/31 05:44:04;;;;;;;7.15;2.35;;;7.50;99.90;;;;;;5033848;28;20229;-76
2024/03/31 05:46:30;;;;;;;9.60;3.00;;;7.50;99.90;;;;;;5034496;28;20209;-77
2024/03/31 05:48:57;;;;;;;6.40;2.50;;;7.70;99.90;;;;;;5034448;28;20208;-77
2024/03/31 05:51:22;;;;;;;6.63;2.80;;;7.80;99.90;;;;;;5034441;28;20213;-77
2024/03/31 05:53:49;;;;;;;3.77;2.57;;;7.90;99.90;;;;;;5035027;28;20228;-77
2024/03/31 05:56:16;;;;;;;4.95;2.47;;;7.90;99.90;;;;;;5037320;28;20334;-77
2024/03/31 05:58:43;;;;;;;8.75;3.35;;;8.00;99.90;;;;;;5054759;28;20216;-76
2024/03/31 06:01:10;;;;;;;9.65;4.03;;;8.10;99.90;;;;;;5054597;28;20303;-77
2024/03/31 06:03:35;;;;;;;5.30;4.13;;;8.20;99.90;;;;;;5055021;28;20231;-77
2024/03/31 06:06:02;;;;;;;8.67;3.60;;;8.30;99.90;;;;;;5054405;28;20235;-77
2024/03/31 06:08:28;;;;;;;6.93;4.53;;;8.30;99.90;;;;;;5054119;28;20237;-77
2024/03/31 06:10:56;;;;;;;9.93;3.53;;;8.40;99.90;;;;;;5054573;28;20216;-77
2024/03/31 06:13:22;;;;;;;3.40;3.10;;;8.50;99.90;;;;;;5056168;28;20228;-78
2024/03/31 06:15:50;;;;;;;6.30;3.80;;;8.50;99.90;;;;;;5056672;28;20235;-78
2024/03/31 06:18:16;;;;;;;10.18;4.22;;;8.60;99.90;;;;;;5056634;28;20209;-77
2024/03/31 06:20:42;;;;;;;5.80;3.53;;;8.60;99.90;;;;;;5056695;28;20217;-77
2024/03/31 06:23:08;;;;;;;5.53;3.63;;;8.60;99.90;;;;;;5055580;28;20236;-77
2024/03/31 06:25:35;;;;;;;12.07;5.20;;;8.70;99.90;;;;;;5055491;28;20238;-77
2024/03/31 06:28:01;;;;;;;15.05;4.13;;;8.70;99.90;;;;;;5054638;28;20679;-77
2024/03/31 06:30:27;;;;;;;9.60;4.97;;;8.80;99.90;;;;;;5055557;28;20200;-78
2024/03/31 06:32:54;;;;;;;11.88;3.92;;;8.90;99.90;;;;;;5055830;28;20264;-77
2024/03/31 06:35:21;;;;;;;6.85;4.03;;;8.90;99.90;;;;;;5055432;28;20672;-77
2024/03/31 06:37:47;;;;;;;7.55;4.40;;;9.00;99.90;;;;;;5055054;28;20209;-77
2024/03/31 06:40:14;;;;;;;5.50;4.80;;;9.00;99.90;;;;;;5055111;28;20662;-77
2024/03/31 06:42:39;;;;;;;10.20;5.25;;;9.00;99.90;;;;;;5054417;28;20227;-77
2024/03/31 06:45:06;;;;;;;8.97;3.60;;;9.00;99.90;;;;;;5053709;28;20239;-77
2024/03/31 06:47:32;;;;;;;5.95;3.72;;;9.10;99.90;;;;;;5054545;28;20587;-77
2024/03/31 06:50:00;;;;;;;4.63;3.40;;;9.10;99.90;;;;;;5054795;28;20212;-77
2024/03/31 06:52:26;;;;;;;7.72;3.67;;;9.20;99.90;;;;;;5054580;28;20608;-77
2024/03/31 06:54:53;;;;;;;7.03;3.67;;;9.20;99.90;;;;;;5053913;28;20214;-77
2024/03/31 06:57:19;;;;;;;8.02;3.70;;;9.20;99.90;;;;;;5054141;28;20356;-77
2024/03/31 06:59:45;;;;;;;6.63;3.13;;;9.20;99.90;;;;;;5054836;28;20217;-77
2024/03/31 07:02:11;;;;;;;6.95;3.47;;;9.20;99.90;;;;;;5053396;28;20236;-74
2024/03/31 07:04:38;;;;;;;11.10;3.40;;;9.30;99.90;;;;;;5050796;28;20603;-75
2024/03/31 07:07:05;;;;;;;5.47;2.78;;;9.30;99.90;;;;;;5050928;28;20212;-74
2024/03/31 07:09:32;;;;;;;5.95;2.80;;;9.50;99.90;;;;;;5052642;28;20229;-75
2024/03/31 07:11:57;;;;;;;5.15;2.70;;;9.60;99.90;;;;;;5050744;28;20208;-75
2024/03/31 07:14:24;;;;;;;6.67;2.70;;;9.70;99.90;;;;;;5050788;28;20204;-75
2024/03/31 07:16:50;;;;;;;5.28;2.35;;;9.80;99.90;;;;;;5051129;28;20471;-75
2024/03/31 07:19:17;;;;;;;3.30;2.70;;;9.90;99.90;;;;;;5050671;28;20212;-75
2024/03/31 07:21:42;;;;;;;4.50;2.83;;;10.10;99.90;;;;;;5050764;28;20205;-75
2024/03/31 07:24:11;;;;;;;3.20;2.50;;;10.40;99.90;;;;;;5049157;28;20228;-75
2024/03/31 07:26:37;;;;;;;4.00;2.20;;;10.50;99.90;;;;;;5046107;28;20205;-75
2024/03/31 07:29:04;;;;;;;3.90;2.80;;;10.70;99.90;;;;;;5047552;28;20197;-75
2024/03/31 07:31:29;;;;;;;6.95;2.58;;;11.00;99.90;;;;;;5047331;28;20593;-75
2024/03/31 07:33:57;;;;;;;4.10;2.30;;;11.20;99.90;;;;;;5047205;28;20221;-74
2024/03/31 07:36:22;;;;;;;2.65;2.28;;;11.50;99.90;;;;;;5047823;28;20698;-74
2024/03/31 07:38:49;;;;;;;4.70;2.53;;;11.90;99.90;;;;;;5048810;28;20236;-75
2024/03/31 07:41:16;;;;;;;5.63;2.55;;;12.30;99.90;;;;;;5050929;28;20671;-75
2024/03/31 07:43:43;;;;;;;9.35;3.05;;;12.70;99.90;;;;;;5050670;28;20264;-75
2024/03/31 07:46:08;;;;;;;5.43;2.57;;;13.00;99.90;;;;;;5051137;28;20254;-75
2024/03/31 07:48:35;;;;;;;3.57;2.20;;;13.20;99.90;;;;;;5050709;28;20471;-75
2024/03/31 07:51:01;;;;;;;5.03;2.50;;;13.30;99.90;;;;;;5050664;28;20263;-75
2024/03/31 07:53:28;;;;;;;5.63;2.63;;;13.40;99.90;;;;;;5050436;28;20483;-75
2024/03/31 07:55:57;;;;;;;7.00;2.90;;;13.40;99.90;;;;;;5050574;28;20216;-73
2024/03/31 07:58:25;;;;;;;11.53;2.93;;;13.40;99.90;;;;;;5050555;28;20470;-73
2024/03/31 08:00:52;;;;;;;3.80;2.67;;;13.50;99.90;;;;;;5050832;28;20452;-75
2024/03/31 08:03:18;;;;;;;8.83;1.97;;;13.40;99.90;;;;;;5050463;28;20858;-75
2024/03/31 08:05:44;;;;;;;2.27;1.93;;;13.80;99.90;;;;;;5050747;28;20609;-75
2024/03/31 08:08:11;;;;;;;10.87;2.97;;;14.10;99.90;;;;;;5050747;28;20836;-75
2024/03/31 08:10:37;;;;;;;9.37;2.87;;;14.10;99.90;;;;;;5050853;28;20290;-75
2024/03/31 08:13:04;;;;;;;2.20;1.83;;;13.70;99.90;;;;;;5050314;28;20570;-75
2024/03/31 08:15:31;;;;;;;8.70;2.67;;;13.40;99.90;;;;;;5050494;28;20209;-75
2024/03/31 08:17:58;;;;;;;5.00;2.30;;;13.60;99.90;;;;;;5050540;28;20494;-75
2024/03/31 08:20:25;;;;;;;4.83;2.40;;;14.20;99.90;;;;;;5050349;28;20455;-75
2024/03/31 08:22:52;;;;;;;6.30;3.30;;;14.90;99.90;;;;;;5050088;28;21016;-75
2024/03/31 08:25:18;;;;;;;6.87;2.77;;;15.30;99.90;;;;;;5050457;28;20486;-75
2024/03/31 08:27:44;;;;;;;5.83;2.47;;;15.50;99.90;;;;;;5050492;28;20485;-75
2024/03/31 08:30:11;;;;;;;4.90;2.67;;;15.80;99.90;;;;;;5050280;28;20209;-75
2024/03/31 08:32:39;;;;;;;6.27;2.40;;;16.40;99.90;;;;;;5050120;28;20495;-73
2024/03/31 08:35:05;;;;;;;8.93;2.80;;;17.10;99.90;;;;;;5049969;28;20467;-73
2024/03/31 08:37:32;;;;;;;6.07;2.40;;;17.70;99.90;;;;;;5050125;28;21027;-73
2024/03/31 08:39:58;;;;;;;2.47;1.87;;;18.00;99.90;;;;;;5050426;28;20539;-73
2024/03/31 08:42:31;;;;;;;5.63;2.37;;;18.00;99.90;;;;;;5049959;28;20487;-75
2024/03/31 08:44:58;;;;;;;3.00;1.80;;;18.20;99.90;;;;;;5050037;28;20233;-73
2024/03/31 08:47:29;;;;;;;5.43;2.53;;;17.80;99.90;;;;;;5050422;28;21059;-75
2024/03/31 08:49:58;;;;;;;5.53;2.50;;;17.40;99.90;;;;;;5049699;28;20467;-73
2024/03/31 08:52:26;;;;;;;4.43;2.63;;;17.50;99.90;;;;;;5049887;28;20503;-73
2024/03/31 08:54:53;;;;;;;5.30;1.93;;;18.10;99.90;;;;;;5049647;28;20463;-73
2024/03/31 08:57:20;;;;;;;4.90;2.17;;;19.20;99.90;;;;;;5049995;28;20726;-74
2024/03/31 08:59:46;;;;;;;5.03;2.23;;;19.90;99.90;;;;;;5049890;28;20458;-73
2024/03/31 09:02:17;;;;;;;7.13;2.33;;;19.60;99.90;;;;;;5049734;28;20574;-73
2024/03/31 09:04:43;;;;;;;3.37;1.30;;;19.10;99.90;;;;;;5049597;28;20236;-73
2024/03/31 09:07:11;;;;;;;5.93;1.93;;;19.10;99.90;;;;;;5049951;28;20471;-74
2024/03/31 09:09:39;;;;;;;5.87;2.43;;;19.70;99.90;;;;;;5050141;28;20459;-74
2024/03/31 09:12:07;;;;;;;4.17;2.40;;;20.10;99.90;;;;;;5049838;28;20499;-73
2024/03/31 09:14:33;;;;;;;5.20;1.93;;;20.30;99.90;;;;;;5049679;28;20459;-74
2024/03/31 09:17:00;;;;;;;8.60;3.80;;;20.10;99.90;;;;;;5041808;28;20487;-74
2024/03/31 09:19:26;;;;;;;4.57;1.90;;;20.50;99.90;;;;;;5030444;28;20210;-73
2024/03/31 09:21:52;;;;;;;3.60;1.70;;;20.60;99.90;;;;;;5029713;28;20540;-74
2024/03/31 09:24:20;;;;;;;8.77;4.67;;;19.40;99.90;;;;;;5030349;28;20216;-73
2024/03/31 09:26:46;;;;;;;5.37;1.67;;;18.80;99.90;;;;;;5030279;28;20499;-74
2024/03/31 09:29:12;;;;;;;3.60;1.50;;;18.90;99.90;;;;;;5030005;28;20465;-73
2024/03/31 09:31:39;;;;;;;4.87;2.00;;;18.90;99.90;;;;;;5029273;28;20475;-75
2024/03/31 09:34:05;;;;;;;4.97;2.10;;;18.70;99.90;;;;;;5028938;28;20491;-75
2024/03/31 09:36:31;;;;;;;2.47;1.67;;;18.60;99.90;;;;;;5029730;28;20464;-74
2024/03/31 09:38:57;;;;;;;3.33;1.53;;;19.10;99.90;;;;;;5029865;28;20467;-75
2024/03/31 09:41:25;;;;;;;7.23;2.33;;;19.50;99.90;;;;;;5028762;28;20464;-75
2024/03/31 09:43:51;;;;;;;6.70;2.07;;;20.30;99.90;;;;;;5029298;28;20236;-74
2024/03/31 09:46:18;;;;;;;4.97;2.00;;;20.10;99.90;;;;;;5029545;28;20492;-75
2024/03/31 09:48:48;;;;;;;6.57;2.30;;;19.50;99.90;;;;;;5029332;28;20209;-74
2024/03/31 09:51:20;;;;;;;4.80;2.53;;;19.00;99.90;;;;;;5029016;28;20579;-74
2024/03/31 09:54:02;;;;;;;3.43;1.60;;;18.70;99.90;;;;;;5028867;28;20867;-75
2024/03/31 09:56:36;;;;;;;7.93;2.23;;;18.10;99.90;;;;;;5026091;28;20464;-74
2024/03/31 09:59:03;;;;;;;4.83;2.37;;;17.90;99.90;;;;;;5049191;28;20540;-74
2024/03/31 10:01:31;;;;;;;6.70;2.90;;;18.30;99.90;;;;;;5048760;28;20491;-75
2024/03/31 10:04:04;;;;;;;3.70;2.50;;;19.10;99.90;;;;;;5049080;28;20479;-74
2024/03/31 10:06:32;;;;;;;7.33;2.17;;;20.00;99.90;;;;;;5049054;28;20486;-75
2024/03/31 10:08:58;;;;;;;3.93;2.13;;;21.20;99.90;;;;;;5049208;28;20468;-74
2024/03/31 10:11:26;;;;;;;4.30;1.87;;;22.60;99.60;;;;;;5049076;28;20463;-74
2024/03/31 10:13:55;;;;;;;7.60;2.43;;;23.60;98.90;;;;;;5048512;28;20492;-75
2024/03/31 10:16:23;;;;;;;6.10;2.33;;;24.20;98.40;;;;;;5021112;28;20522;-75
2024/03/31 10:18:51;;;;;;;4.80;2.30;;;24.30;98.20;;;;;;5028454;28;20464;-75
2024/03/31 10:21:19;;;;;;;2.80;2.10;;;24.30;96.20;;;;;;5028629;28;20688;-75
2024/03/31 10:23:49;;;;;;;4.40;1.60;;;24.00;96.50;;;;;;5028009;28;20708;-75
2024/03/31 10:26:16;;;;;;;6.17;2.07;;;24.30;96.00;;;;;;5028228;28;20495;-75
2024/03/31 10:28:42;;;;;;;4.10;1.90;;;24.60;95.00;;;;;;5027976;28;20857;-75
2024/03/31 10:31:10;;;;;;;4.93;1.77;;;25.10;95.20;;;;;;5022167;28;20480;-75
2024/03/31 10:33:37;;;;;;;7.13;2.27;;;26.10;94.40;;;;;;5048098;28;20880;-76
2024/03/31 10:36:06;;;;;;;5.70;2.07;;;26.20;93.00;;;;;;5048258;28;20888;-75
2024/03/31 10:38:31;;;;;;;4.80;2.33;;;26.50;94.00;;;;;;5051084;28;20554;-75
2024/03/31 10:40:59;;;;;;;5.93;2.77;;;26.40;93.40;;;;;;5049600;28;20555;-75
2024/03/31 10:43:25;;;;;;;3.73;1.83;;;26.20;92.70;;;;;;5048009;28;20490;-75
2024/03/31 10:45:52;;;;;;;3.70;1.87;;;25.60;93.30;;;;;;5047883;28;20488;-75
2024/03/31 10:48:19;;;;;;;5.60;1.80;;;24.80;93.80;;;;;;5047738;28;20470;-74
2024/03/31 10:50:46;;;;;;;6.67;2.77;;;23.60;94.40;;;;;;5049838;28;20478;-77
2024/03/31 10:53:12;;;;;;;4.27;1.90;;;22.80;94.40;;;;;;5050519;28;20487;-76
2024/03/31 10:55:43;;;;;;;6.53;3.03;;;22.20;95.10;;;;;;5042728;28;20475;-75
2024/03/31 10:58:14;;;;;;;9.73;2.43;;;21.40;95.30;;;;;;5026433;28;20206;-75
2024/03/31 11:00:43;;;;;;;5.27;2.50;;;20.50;95.60;;;;;;5038002;28;20507;-75
2024/03/31 11:03:09;;;;;;;3.20;1.90;;;19.80;97.20;;;;;;5049754;28;20549;-74
2024/03/31 11:05:39;;;;;;;7.73;1.70;;;19.00;97.80;;;;;;5048990;28;20526;-74
2024/03/31 11:08:05;;;;;;;9.30;1.73;;;18.40;98.50;;;;;;5049717;28;20496;-74
2024/03/31 11:10:32;;;;;;;4.00;1.77;;;17.90;98.90;;;;;;5050209;28;20552;-74
2024/03/31 11:12:58;;;;;;;4.10;1.83;;;17.60;99.40;;;;;;5049090;28;20487;-75
2024/03/31 11:15:27;;;;;;;7.23;1.93;;;17.40;99.60;;;;;;5034207;28;21002;-74
2024/03/31 11:17:53;;;;;;;6.23;2.40;;;17.20;99.90;;;;;;5050990;28;20984;-74
2024/03/31 11:20:20;;;;;;;5.17;2.47;;;17.20;99.90;;;;;;5039309;28;21072;-74
2024/03/31 11:22:48;;;;;;;3.03;2.13;;;17.20;99.90;;;;;;5050279;28;20480;-74
2024/03/31 11:25:17;;;;;;;4.70;1.77;;;17.30;99.90;;;;;;5038380;28;20914;-75
2024/03/31 11:27:43;;;;;;;6.40;2.03;;;17.30;99.90;;;;;;5030857;28;20863;-75
2024/03/31 11:30:11;;;;;;;4.43;2.10;;;17.20;99.90;;;;;;5029970;28;20460;-75
2024/03/31 11:32:39;;;;;;;3.37;1.87;;;17.20;99.90;;;;;;5030486;28;20857;-75
2024/03/31 11:35:06;;;;;;;6.03;1.53;;;17.20;99.90;;;;;;5030213;28;21056;-75
2024/03/31 11:37:32;;;;;;;3.30;1.70;;;17.30;99.90;;;;;;5030682;28;20488;-74
2024/03/31 11:40:01;;;;;;;7.27;1.87;;;17.50;99.90;;;;;;5030512;28;21109;-75
2024/03/31 11:42:27;;;;;;;3.60;2.27;;;17.90;99.90;;;;;;5030300;28;20714;-75
2024/03/31 11:44:54;;;;;;;9.37;2.30;;;18.70;99.90;;;;;;5030045;28;20468;-74
2024/03/31 11:47:20;;;;;;;4.07;1.70;;;19.70;99.90;;;;;;5028678;28;20501;-75
2024/03/31 11:49:48;;;;;;;8.40;2.17;;;20.80;99.70;;;;;;5030436;28;20966;-75
2024/03/31 11:52:14;;;;;;;5.20;2.20;;;21.50;98.00;;;;;;5030560;28;20480;-75
2024/03/31 11:54:41;;;;;;;5.17;2.30;;;21.90;97.50;;;;;;5030176;28;20464;-75
2024/03/31 11:57:09;;;;;;;7.37;2.00;;;23.10;97.20;;;;;;5031256;28;20468;-75
2024/03/31 11:59:36;;;;;;;6.70;2.50;;;23.60;97.00;;;;;;5030414;28;20468;-75
2024/03/31 12:02:02;;;;;;;5.87;2.40;;;23.40;96.50;;;;;;5030360;28;20459;-76
2024/03/31 12:04:30;;;;;;;5.70;2.13;;;22.70;96.50;;;;;;5031098;28;20460;-75
2024/03/31 12:06:56;;;;;;;7.00;2.20;;;22.10;96.90;;;;;;5030663;28;20323;-74
2024/03/31 12:09:24;;;;;;;7.63;2.03;;;21.60;97.40;;;;;;5030541;28;20555;-74
2024/03/31 12:11:50;;;;;;;4.80;2.13;;;21.30;98.00;;;;;;5030487;28;20986;-75
2024/03/31 12:14:19;;;;;;;5.80;1.90;;;21.20;97.60;;;;;;5030451;28;20665;-75
2024/03/31 12:16:45;;;;;;;7.90;1.93;;;20.80;98.80;;;;;;5030611;28;20874;-74
2024/03/31 12:19:12;;;;;;;3.13;1.80;;;20.60;98.90;;;;;;5032451;28;20476;-75
2024/03/31 12:21:38;;;;;;;5.00;3.97;;;20.30;98.70;;;;;;5030023;28;20464;-75
2024/03/31 12:24:06;;;;;;;7.73;2.70;;;19.90;99.30;;;;;;5029957;28;20571;-75
2024/03/31 12:26:33;;;;;;;4.70;1.83;;;19.60;99.60;;;;;;5032897;28;20222;-75
2024/03/31 12:29:00;;;;;;;5.73;2.30;;;19.40;99.90;;;;;;5033653;28;20456;-75
2024/03/31 12:31:27;;;;;;;11.33;3.67;;;19.10;99.80;;;;;;5033569;28;20464;-75
2024/03/31 12:33:54;;;;;;;5.40;2.67;;;18.90;99.30;;;;;;5033709;28;20491;-74
2024/03/31 12:36:20;;;;;;;4.63;2.47;;;18.90;99.90;;;;;;5033985;28;20471;-75
2024/03/31 12:38:48;;;;;;;5.40;2.10;;;19.10;99.90;;;;;;5033544;28;20456;-74
2024/03/31 12:41:15;;;;;;;6.20;2.57;;;19.50;99.90;;;;;;5033568;28;20495;-74
2024/03/31 12:43:42;;;;;;;7.17;2.40;;;19.70;99.80;;;;;;5033067;28;20873;-74
2024/03/31 12:46:09;;;;;;;3.40;2.00;;;20.00;99.50;;;;;;5033713;28;20492;-73
2024/03/31 12:48:38;;;;;;;5.50;2.10;;;20.10;99.10;;;;;;5033692;28;20846;-76
2024/03/31 12:51:05;;;;;;;4.80;2.43;;;20.30;99.00;;;;;;5033118;28;20539;-73